sensor_id;sensor_type;location;lat;lon;timestamp;pressure;altitude;pressure_sealevel;temperature;humidity
73700;BME280;62005;50.082;8.988;2022-12-05T00:01:55;100304.78;;;3.29;89.54
73700;BME280;62005;50.082;8.988;2022-12-05T00:07:37;100317.13;;;3.30;89.96
73700;BME280;62005;50.082;8.988;2022-12-05T00:10:06;100320.44;;;3.32;89.61
73700;BME280;62005;50.082;8.988;2022-12-05T00:12:41;100369.69;;;3.60;90.22
73700;BME280;62005;50.082;8.988;2022-12-05T00:15:14;100382.69;;;3.63;90.17
73700;BME280;62005;50.082;8.988;2022-12-05T00:20:28;100363.69;;;3.58;90.38
73700;BME280;62005;50.082;8.988;2022-12-05T00:22:54;100373.16;;;3.60;90.34
73700;BME280;62005;50.082;8.988;2022-12-05T00:25:34;100362.16;;;3.55;89.72
73700;BME280;62005;50.082;8.988;2022-12-05T00:28:49;100400.16;;;3.73;89.67
73700;BME280;62005;50.082;8.988;2022-12-05T00:34:37;100359.38;;;3.49;90.11
73700;BME280;62005;50.082;8.988;2022-12-05T00:37:08;100382.38;;;3.58;90.00
73700;BME280;62005;50.082;8.988;2022-12-05T00:39:41;100386.38;;;3.62;90.14
73700;BME280;62005;50.082;8.988;2022-12-05T00:45:11;100408.00;;;3.75;89.89
73700;BME280;62005;50.082;8.988;2022-12-05T00:47:45;100347.66;;;3.35;89.22
73700;BME280;62005;50.082;8.988;2022-12-05T00:50:24;100352.16;;;3.35;89.70
73700;BME280;62005;50.082;8.988;2022-12-05T00:55:55;100345.16;;;3.34;89.38
73700;BME280;62005;50.082;8.988;2022-12-05T00:58:40;100348.16;;;3.31;89.27
73700;BME280;62005;50.082;8.988;2022-12-05T01:01:17;100429.38;;;3.75;90.00
73700;BME280;62005;50.082;8.988;2022-12-05T01:03:46;100367.50;;;3.33;89.50
73700;BME280;62005;50.082;8.988;2022-12-05T01:06:23;100370.19;;;3.33;89.57
73700;BME280;62005;50.082;8.988;2022-12-05T01:09:10;100358.22;;;3.29;90.08
73700;BME280;62005;50.082;8.988;2022-12-05T01:11:36;100425.09;;;3.66;90.34
73700;BME280;62005;50.082;8.988;2022-12-05T01:14:02;100405.47;;;3.51;89.97
73700;BME280;62005;50.082;8.988;2022-12-05T01:16:42;100381.47;;;3.43;90.24
73700;BME280;62005;50.082;8.988;2022-12-05T01:19:23;100427.09;;;3.64;89.48
73700;BME280;62005;50.082;8.988;2022-12-05T01:22:07;100393.50;;;3.39;89.89
73700;BME280;62005;50.082;8.988;2022-12-05T01:27:55;100389.19;;;3.38;89.76
73700;BME280;62005;50.082;8.988;2022-12-05T01:30:41;100443.44;;;3.69;89.94
73700;BME280;62005;50.082;8.988;2022-12-05T01:33:15;100436.13;;;3.63;90.63
73700;BME280;62005;50.082;8.988;2022-12-05T01:35:46;100390.03;;;3.38;90.19
73700;BME280;62005;50.082;8.988;2022-12-05T01:38:12;100409.16;;;3.50;90.06
73700;BME280;62005;50.082;8.988;2022-12-05T01:40:47;100432.81;;;3.61;90.36
73700;BME280;62005;50.082;8.988;2022-12-05T01:43:20;100417.00;;;3.51;90.13
73700;BME280;62005;50.082;8.988;2022-12-05T01:45:48;100426.78;;;3.59;90.21
73700;BME280;62005;50.082;8.988;2022-12-05T01:48:24;100390.22;;;3.37;89.94
73700;BME280;62005;50.082;8.988;2022-12-05T01:50:54;100396.19;;;3.39;89.96
73700;BME280;62005;50.082;8.988;2022-12-05T01:53:27;100394.16;;;3.41;90.41
73700;BME280;62005;50.082;8.988;2022-12-05T01:55:56;100448.47;;;3.64;89.94
73700;BME280;62005;50.082;8.988;2022-12-05T01:58:24;100416.50;;;3.48;89.66
73700;BME280;62005;50.082;8.988;2022-12-05T02:01:04;100443.13;;;3.64;89.95
73700;BME280;62005;50.082;8.988;2022-12-05T02:03:38;100399.38;;;3.34;89.87
73700;BME280;62005;50.082;8.988;2022-12-05T02:06:04;100471.78;;;3.78;90.36
73700;BME280;62005;50.082;8.988;2022-12-05T02:08:30;100466.09;;;3.81;90.58
73700;BME280;62005;50.082;8.988;2022-12-05T02:10:56;100463.13;;;3.76;90.37
73700;BME280;62005;50.082;8.988;2022-12-05T02:13:49;100469.78;;;3.80;90.28
73700;BME280;62005;50.082;8.988;2022-12-05T02:24:52;100431.50;;;3.57;90.08
73700;BME280;62005;50.082;8.988;2022-12-05T02:30:21;100446.47;;;3.66;90.79
73700;BME280;62005;50.082;8.988;2022-12-05T02:33:17;100464.44;;;3.80;90.14
73700;BME280;62005;50.082;8.988;2022-12-05T02:35:58;100468.94;;;3.79;90.33
73700;BME280;62005;50.082;8.988;2022-12-05T02:38:49;100473.44;;;3.79;90.17
73700;BME280;62005;50.082;8.988;2022-12-05T02:41:32;100476.13;;;3.79;90.24
73700;BME280;62005;50.082;8.988;2022-12-05T02:44:13;100476.13;;;3.79;90.36
73700;BME280;62005;50.082;8.988;2022-12-05T02:46:41;100416.88;;;3.45;90.10
73700;BME280;62005;50.082;8.988;2022-12-05T02:49:23;100406.88;;;3.39;90.50
73700;BME280;62005;50.082;8.988;2022-12-05T02:51:54;100461.47;;;3.75;90.60
73700;BME280;62005;50.082;8.988;2022-12-05T02:54:26;100471.78;;;3.78;90.79
73700;BME280;62005;50.082;8.988;2022-12-05T02:56:56;100471.13;;;3.76;90.31
73700;BME280;62005;50.082;8.988;2022-12-05T02:59:22;100468.47;;;3.76;90.41
73700;BME280;62005;50.082;8.988;2022-12-05T03:01:48;100464.75;;;3.77;90.65
73700;BME280;62005;50.082;8.988;2022-12-05T03:04:15;100461.09;;;3.78;90.50
73700;BME280;62005;50.082;8.988;2022-12-05T03:06:44;100461.94;;;3.78;90.36
73700;BME280;62005;50.082;8.988;2022-12-05T03:09:17;100453.13;;;3.70;90.00
73700;BME280;62005;50.082;8.988;2022-12-05T03:11:51;100425.19;;;3.50;90.36
73700;BME280;62005;50.082;8.988;2022-12-05T03:14:40;100440.16;;;3.59;90.46
73700;BME280;62005;50.082;8.988;2022-12-05T03:17:15;100397.91;;;3.32;89.99
73700;BME280;62005;50.082;8.988;2022-12-05T03:22:41;100428.84;;;3.49;90.71
73700;BME280;62005;50.082;8.988;2022-12-05T03:25:19;100407.22;;;3.36;89.89
73700;BME280;62005;50.082;8.988;2022-12-05T03:30:52;100441.22;;;3.50;90.72
73700;BME280;62005;50.082;8.988;2022-12-05T03:33:21;100489.84;;;3.76;90.68
73700;BME280;62005;50.082;8.988;2022-12-05T03:36:00;100483.16;;;3.72;90.98
73700;BME280;62005;50.082;8.988;2022-12-05T03:38:34;100495.69;;;3.79;90.39
73700;BME280;62005;50.082;8.988;2022-12-05T03:41:09;100488.19;;;3.75;90.60
73700;BME280;62005;50.082;8.988;2022-12-05T03:43:42;100500.19;;;3.79;90.76
73700;BME280;62005;50.082;8.988;2022-12-05T03:46:17;100502.69;;;3.80;90.38
73700;BME280;62005;50.082;8.988;2022-12-05T03:48:59;100508.88;;;3.81;90.86
73700;BME280;62005;50.082;8.988;2022-12-05T03:51:34;100510.06;;;3.78;90.67
73700;BME280;62005;50.082;8.988;2022-12-05T03:54:05;100521.22;;;3.82;90.91
73700;BME280;62005;50.082;8.988;2022-12-05T03:56:48;100486.59;;;3.58;90.94
73700;BME280;62005;50.082;8.988;2022-12-05T04:01:58;100481.97;;;3.52;90.39
73700;BME280;62005;50.082;8.988;2022-12-05T04:04:52;100485.28;;;3.54;90.89
73700;BME280;62005;50.082;8.988;2022-12-05T04:07:29;100498.28;;;3.65;90.97
73700;BME280;62005;50.082;8.988;2022-12-05T04:10:25;100445.47;;;3.36;90.94
73700;BME280;62005;50.082;8.988;2022-12-05T04:13:04;100477.63;;;3.51;91.02
73700;BME280;62005;50.082;8.988;2022-12-05T04:15:57;100462.97;;;3.47;91.02
73700;BME280;62005;50.082;8.988;2022-12-05T04:18:48;100472.66;;;3.40;90.79
73700;BME280;62005;50.082;8.988;2022-12-05T04:21:30;100497.91;;;3.68;91.36
73700;BME280;62005;50.082;8.988;2022-12-05T04:24:08;100457.97;;;3.36;90.93
73700;BME280;62005;50.082;8.988;2022-12-05T04:30:12;100488.31;;;3.51;90.96
73700;BME280;62005;50.082;8.988;2022-12-05T04:32:47;100528.59;;;3.80;90.92
73700;BME280;62005;50.082;8.988;2022-12-05T04:35:25;100502.28;;;3.61;91.47
73700;BME280;62005;50.082;8.988;2022-12-05T04:37:56;100543.78;;;3.79;90.90
73700;BME280;62005;50.082;8.988;2022-12-05T04:40:29;100513.94;;;3.68;91.17
73700;BME280;62005;50.082;8.988;2022-12-05T04:42:58;100536.31;;;3.75;90.90
73700;BME280;62005;50.082;8.988;2022-12-05T04:45:35;100525.94;;;3.72;90.98
73700;BME280;62005;50.082;8.988;2022-12-05T04:48:10;100476.69;;;3.36;91.51
73700;BME280;62005;50.082;8.988;2022-12-05T04:50:44;100536.63;;;3.72;91.12
73700;BME280;62005;50.082;8.988;2022-12-05T04:53:13;100485.00;;;3.41;90.91
73700;BME280;62005;50.082;8.988;2022-12-05T04:55:43;100467.53;;;3.30;91.04
73700;BME280;62005;50.082;8.988;2022-12-05T04:58:23;100476.69;;;3.36;91.15
73700;BME280;62005;50.082;8.988;2022-12-05T05:01:40;100479.03;;;3.31;91.27
73700;BME280;62005;50.082;8.988;2022-12-05T05:04:28;100552.66;;;3.72;91.12
73700;BME280;62005;50.082;8.988;2022-12-05T05:07:04;100486.41;;;3.29;91.61
73700;BME280;62005;50.082;8.988;2022-12-05T05:09:40;100516.03;;;3.50;91.55
73700;BME280;62005;50.082;8.988;2022-12-05T05:12:17;100521.38;;;3.50;91.42
73700;BME280;62005;50.082;8.988;2022-12-05T05:14:49;100501.38;;;3.38;91.51
73700;BME280;62005;50.082;8.988;2022-12-05T05:17:25;100524.72;;;3.52;91.43
73700;BME280;62005;50.082;8.988;2022-12-05T05:19:51;100508.06;;;3.42;91.67
73700;BME280;62005;50.082;8.988;2022-12-05T05:22:39;100494.56;;;3.35;91.68
73700;BME280;62005;50.082;8.988;2022-12-05T05:25:10;100481.06;;;3.29;91.52
73700;BME280;62005;50.082;8.988;2022-12-05T05:27:41;100501.38;;;3.38;92.18
73700;BME280;62005;50.082;8.988;2022-12-05T05:30:16;100538.06;;;3.60;91.74
73700;BME280;62005;50.082;8.988;2022-12-05T05:32:49;100500.22;;;3.32;91.49
73700;BME280;62005;50.082;8.988;2022-12-05T05:35:15;100518.06;;;3.48;91.50
73700;BME280;62005;50.082;8.988;2022-12-05T05:37:43;100558.72;;;3.66;91.78
73700;BME280;62005;50.082;8.988;2022-12-05T05:40:10;100574.53;;;3.75;91.86
73700;BME280;62005;50.082;8.988;2022-12-05T05:42:44;100515.72;;;3.45;91.94
73700;BME280;62005;50.082;8.988;2022-12-05T05:45:13;100507.41;;;3.40;91.53
73700;BME280;62005;50.082;8.988;2022-12-05T05:47:42;100502.41;;;3.37;92.07
73700;BME280;62005;50.082;8.988;2022-12-05T05:50:13;100536.69;;;3.64;92.23
73700;BME280;62005;50.082;8.988;2022-12-05T05:52:39;100556.00;;;3.74;91.63
73700;BME280;62005;50.082;8.988;2022-12-05T05:55:05;100559.72;;;3.73;91.56
73700;BME280;62005;50.082;8.988;2022-12-05T05:57:31;100556.50;;;3.77;91.63
73700;BME280;62005;50.082;8.988;2022-12-05T05:59:57;100529.72;;;3.55;91.87
73700;BME280;62005;50.082;8.988;2022-12-05T06:02:30;100507.72;;;3.45;91.90
73700;BME280;62005;50.082;8.988;2022-12-05T06:05:45;100539.00;;;3.67;91.16
73700;BME280;62005;50.082;8.988;2022-12-05T06:08:47;100502.38;;;3.45;90.95
73700;BME280;62005;50.082;8.988;2022-12-05T06:11:37;100517.69;;;3.51;91.70
73700;BME280;62005;50.082;8.988;2022-12-05T06:14:49;100498.69;;;3.46;91.34
73700;BME280;62005;50.082;8.988;2022-12-05T06:18:00;100516.66;;;3.60;92.02
73700;BME280;62005;50.082;8.988;2022-12-05T06:20:52;100491.34;;;3.48;91.18
73700;BME280;62005;50.082;8.988;2022-12-05T06:23:17;100541.00;;;3.73;91.82
73700;BME280;62005;50.082;8.988;2022-12-05T06:25:53;100518.31;;;3.61;91.69
73700;BME280;62005;50.082;8.988;2022-12-05T06:28:24;100526.00;;;3.64;91.27
73700;BME280;62005;50.082;8.988;2022-12-05T06:30:50;100560.31;;;3.83;91.47
73700;BME280;62005;50.082;8.988;2022-12-05T06:36:47;100524.25;;;3.48;91.72
73700;BME280;62005;50.082;8.988;2022-12-05T06:39:34;100595.03;;;3.91;91.37
73700;BME280;62005;50.082;8.988;2022-12-05T06:42:04;100561.56;;;3.64;91.29
73700;BME280;62005;50.082;8.988;2022-12-05T06:48:17;100562.06;;;3.68;91.62
73700;BME280;62005;50.082;8.988;2022-12-05T06:50:50;100601.09;;;3.85;92.15
73700;BME280;62005;50.082;8.988;2022-12-05T06:53:16;100611.75;;;3.93;92.09
73700;BME280;62005;50.082;8.988;2022-12-05T06:55:41;100574.41;;;3.69;92.13
73700;BME280;62005;50.082;8.988;2022-12-05T06:58:27;100572.41;;;3.71;92.04
73700;BME280;62005;50.082;8.988;2022-12-05T07:01:11;100544.41;;;3.51;92.18
73700;BME280;62005;50.082;8.988;2022-12-05T07:03:55;100623.44;;;3.92;91.87
73700;BME280;62005;50.082;8.988;2022-12-05T07:06:20;100620.59;;;3.93;91.73
73700;BME280;62005;50.082;8.988;2022-12-05T07:08:47;100626.78;;;3.94;92.31
73700;BME280;62005;50.082;8.988;2022-12-05T07:11:13;100561.78;;;3.55;91.78
73700;BME280;62005;50.082;8.988;2022-12-05T07:13:46;100566.44;;;3.61;91.73
73700;BME280;62005;50.082;8.988;2022-12-05T07:16:42;100587.09;;;3.67;92.08
73700;BME280;62005;50.082;8.988;2022-12-05T07:19:20;100605.13;;;3.81;91.98
73700;BME280;62005;50.082;8.988;2022-12-05T07:21:53;100635.59;;;4.03;92.41
73700;BME280;62005;50.082;8.988;2022-12-05T07:24:19;100634.75;;;4.02;91.99
73700;BME280;62005;50.082;8.988;2022-12-05T07:26:44;100636.78;;;4.00;92.20
73700;BME280;62005;50.082;8.988;2022-12-05T07:29:09;100564.78;;;3.60;91.77
73700;BME280;62005;50.082;8.988;2022-12-05T07:31:54;100598.75;;;3.82;91.35
73700;BME280;62005;50.082;8.988;2022-12-05T07:34:26;100583.44;;;3.68;92.01
73700;BME280;62005;50.082;8.988;2022-12-05T07:37:28;100653.78;;;4.07;92.21
73700;BME280;62005;50.082;8.988;2022-12-05T07:40:01;100618.13;;;3.84;91.71
73700;BME280;62005;50.082;8.988;2022-12-05T07:42:27;100583.81;;;3.65;92.21
73700;BME280;62005;50.082;8.988;2022-12-05T07:44:53;100647.16;;;4.03;92.10
73700;BME280;62005;50.082;8.988;2022-12-05T07:47:19;100645.81;;;3.99;92.14
73700;BME280;62005;50.082;8.988;2022-12-05T07:49:44;100650.28;;;4.07;92.63
73700;BME280;62005;50.082;8.988;2022-12-05T07:52:12;100659.16;;;4.07;92.12
73700;BME280;62005;50.082;8.988;2022-12-05T07:54:37;100662.50;;;4.09;92.42
73700;BME280;62005;50.082;8.988;2022-12-05T07:57:03;100659.84;;;4.01;92.25
73700;BME280;62005;50.082;8.988;2022-12-05T07:59:28;100667.53;;;4.04;91.80
73700;BME280;62005;50.082;8.988;2022-12-05T08:01:53;100666.50;;;4.05;92.22
73700;BME280;62005;50.082;8.988;2022-12-05T08:04:19;100664.84;;;4.04;92.50
73700;BME280;62005;50.082;8.988;2022-12-05T08:06:45;100656.84;;;3.96;91.86
73700;BME280;62005;50.082;8.988;2022-12-05T08:22:51;100680.81;;;4.20;92.22
73700;BME280;62005;50.082;8.988;2022-12-05T08:25:34;100654.00;;;3.97;92.47
73700;BME280;62005;50.082;8.988;2022-12-05T08:28:20;100693.88;;;4.15;92.24
73700;BME280;62005;50.082;8.988;2022-12-05T08:34:19;100700.88;;;4.24;92.37
73700;BME280;62005;50.082;8.988;2022-12-05T08:43:58;100656.53;;;3.91;92.37
73700;BME280;62005;50.082;8.988;2022-12-05T08:46:48;100657.88;;;3.87;92.46
73700;BME280;62005;50.082;8.988;2022-12-05T08:52:12;100727.94;;;4.29;92.52
73700;BME280;62005;50.082;8.988;2022-12-05T08:54:38;100716.44;;;4.21;92.67
73700;BME280;62005;50.082;8.988;2022-12-05T08:57:03;100720.75;;;4.30;92.75
73700;BME280;62005;50.082;8.988;2022-12-05T09:02:22;100704.25;;;4.18;92.50
73700;BME280;62005;50.082;8.988;2022-12-05T09:05:01;100685.03;;;4.07;92.32
73700;BME280;62005;50.082;8.988;2022-12-05T09:14:10;100676.22;;;4.06;92.03
73700;BME280;62005;50.082;8.988;2022-12-05T09:17:10;100729.25;;;4.33;92.92
73700;BME280;62005;50.082;8.988;2022-12-05T09:20:38;100749.47;;;4.44;92.35
73700;BME280;62005;50.082;8.988;2022-12-05T09:47:14;100771.66;;;4.52;92.38
73700;BME280;62005;50.082;8.988;2022-12-05T09:50:12;100774.03;;;4.47;92.43
73700;BME280;62005;50.082;8.988;2022-12-05T10:06:40;100753.06;;;4.59;92.35
73700;BME280;62005;50.082;8.988;2022-12-05T10:40:12;100725.66;;;4.79;92.59
73700;BME280;62005;50.082;8.988;2022-12-05T11:12:22;100716.22;;;4.91;92.31
73700;BME280;62005;50.082;8.988;2022-12-05T11:32:31;100727.84;;;5.06;92.45
73700;BME280;62005;50.082;8.988;2022-12-05T11:38:39;100725.81;;;5.08;92.30
73700;BME280;62005;50.082;8.988;2022-12-05T11:52:10;100729.50;;;5.07;92.33
73700;BME280;62005;50.082;8.988;2022-12-05T12:23:59;100722.13;;;5.09;92.06
73700;BME280;62005;50.082;8.988;2022-12-05T12:32:36;100733.78;;;5.16;92.48
73700;BME280;62005;50.082;8.988;2022-12-05T12:41:31;100742.50;;;5.18;92.39
73700;BME280;62005;50.082;8.988;2022-12-05T12:54:19;100685.09;;;4.90;92.24
73700;BME280;62005;50.082;8.988;2022-12-05T13:02:46;100718.75;;;5.15;92.91
73700;BME280;62005;50.082;8.988;2022-12-05T13:11:12;100742.13;;;5.21;92.57
73700;BME280;62005;50.082;8.988;2022-12-05T13:14:26;100694.09;;;4.97;92.91
73700;BME280;62005;50.082;8.988;2022-12-05T13:17:47;100737.13;;;5.18;92.48
73700;BME280;62005;50.082;8.988;2022-12-05T13:20:32;100696.41;;;5.00;92.65
73700;BME280;62005;50.082;8.988;2022-12-05T13:26:20;100673.38;;;4.91;92.81
73700;BME280;62005;50.082;8.988;2022-12-05T13:28:52;100697.34;;;5.07;92.25
73700;BME280;62005;50.082;8.988;2022-12-05T13:31:55;100712.00;;;5.19;92.33
73700;BME280;62005;50.082;8.988;2022-12-05T13:37:44;100658.31;;;4.90;92.66
73700;BME280;62005;50.082;8.988;2022-12-05T14:05:52;100744.66;;;5.38;91.98
73700;BME280;62005;50.082;8.988;2022-12-05T14:09:47;100749.03;;;5.39;92.20
73700;BME280;62005;50.082;8.988;2022-12-05T14:35:39;100752.00;;;5.44;91.97
73700;BME280;62005;50.082;8.988;2022-12-05T14:48:50;100749.97;;;5.46;92.14
73700;BME280;62005;50.082;8.988;2022-12-05T15:14:31;100756.66;;;5.50;92.53
73700;BME280;62005;50.082;8.988;2022-12-05T15:20:37;100738.66;;;5.35;92.62
73700;BME280;62005;50.082;8.988;2022-12-05T16:07:20;100708.06;;;5.07;92.27
73700;BME280;62005;50.082;8.988;2022-12-05T16:16:51;100715.22;;;5.15;92.19
73700;BME280;62005;50.082;8.988;2022-12-05T16:19:42;100724.41;;;5.20;92.62
73700;BME280;62005;50.082;8.988;2022-12-05T16:22:24;100727.69;;;5.22;92.54
73700;BME280;62005;50.082;8.988;2022-12-05T16:25:34;100779.75;;;5.51;93.03
73700;BME280;62005;50.082;8.988;2022-12-05T16:38:27;100743.09;;;5.28;92.34
73700;BME280;62005;50.082;8.988;2022-12-05T16:53:44;100774.38;;;5.51;92.61
73700;BME280;62005;50.082;8.988;2022-12-05T17:03:15;100788.44;;;5.53;92.77
73700;BME280;62005;50.082;8.988;2022-12-05T17:06:32;100781.44;;;5.52;92.19
73700;BME280;62005;50.082;8.988;2022-12-05T17:16:46;100766.78;;;5.40;92.87
73700;BME280;62005;50.082;8.988;2022-12-05T17:28:33;100742.13;;;5.21;92.98
73700;BME280;62005;50.082;8.988;2022-12-05T17:31:20;100724.13;;;5.07;92.73
73700;BME280;62005;50.082;8.988;2022-12-05T17:34:16;100762.16;;;5.33;93.16
73700;BME280;62005;50.082;8.988;2022-12-05T17:40:17;100804.19;;;5.56;92.36
73700;BME280;62005;50.082;8.988;2022-12-05T17:43:25;100809.53;;;5.56;92.51
73700;BME280;62005;50.082;8.988;2022-12-05T17:46:33;100809.53;;;5.56;92.96
73700;BME280;62005;50.082;8.988;2022-12-05T17:56:24;100742.50;;;5.18;93.01
73700;BME280;62005;50.082;8.988;2022-12-05T18:01:42;100738.97;;;5.18;93.18
73700;BME280;62005;50.082;8.988;2022-12-05T18:11:36;100735.44;;;5.17;92.27
73700;BME280;62005;50.082;8.988;2022-12-05T18:14:04;100744.16;;;5.19;92.58
73700;BME280;62005;50.082;8.988;2022-12-05T18:19:34;100765.16;;;5.30;92.27
73700;BME280;62005;50.082;8.988;2022-12-05T18:22:10;100805.00;;;5.56;92.43
73700;BME280;62005;50.082;8.988;2022-12-05T18:24:35;100790.47;;;5.51;92.35
73700;BME280;62005;50.082;8.988;2022-12-05T18:27:01;100811.22;;;5.57;92.77
73700;BME280;62005;50.082;8.988;2022-12-05T18:29:36;100772.88;;;5.33;92.81
73700;BME280;62005;50.082;8.988;2022-12-05T18:36:03;100747.84;;;5.18;92.32
73700;BME280;62005;50.082;8.988;2022-12-05T18:38:47;100753.88;;;5.20;92.63
73700;BME280;62005;50.082;8.988;2022-12-05T18:41:19;100765.81;;;5.32;92.40
73700;BME280;62005;50.082;8.988;2022-12-05T18:46:57;100803.81;;;5.59;92.24
73700;BME280;62005;50.082;8.988;2022-12-05T18:49:39;100735.13;;;5.20;92.16
73700;BME280;62005;50.082;8.988;2022-12-05T18:59:04;100811.59;;;5.54;90.69
73700;BME280;62005;50.082;8.988;2022-12-05T19:02:07;100805.56;;;5.52;90.73
73700;BME280;62005;50.082;8.988;2022-12-05T19:54:55;100796.09;;;5.18;88.79
73700;BME280;62005;50.082;8.988;2022-12-05T20:17:41;100811.56;;;5.31;89.21
73700;BME280;62005;50.082;8.988;2022-12-05T20:20:10;100761.50;;;5.01;89.47
73700;BME280;62005;50.082;8.988;2022-12-05T20:28:57;100778.97;;;5.19;89.43
73700;BME280;62005;50.082;8.988;2022-12-05T20:40:13;100754.03;;;4.96;88.86
73700;BME280;62005;50.082;8.988;2022-12-05T20:42:38;100786.25;;;5.11;89.30
73700;BME280;62005;50.082;8.988;2022-12-05T20:45:27;100809.59;;;5.25;89.02
73700;BME280;62005;50.082;8.988;2022-12-05T20:47:52;100777.38;;;5.10;89.10
73700;BME280;62005;50.082;8.988;2022-12-05T20:52:53;100826.47;;;5.33;88.44
73700;BME280;62005;50.082;8.988;2022-12-05T21:17:31;100751.03;;;4.91;88.92
73700;BME280;62005;50.082;8.988;2022-12-05T21:20:29;100806.75;;;5.26;89.21
73700;BME280;62005;50.082;8.988;2022-12-05T21:22:54;100804.06;;;5.26;88.76
73700;BME280;62005;50.082;8.988;2022-12-05T21:25:28;100777.72;;;5.07;89.13
73700;BME280;62005;50.082;8.988;2022-12-05T21:31:40;100810.38;;;5.33;88.68
73700;BME280;62005;50.082;8.988;2022-12-05T21:34:27;100776.06;;;5.06;88.71
73700;BME280;62005;50.082;8.988;2022-12-05T21:50:41;100780.56;;;5.06;89.10
73700;BME280;62005;50.082;8.988;2022-12-05T21:53:22;100755.72;;;4.97;88.75
73700;BME280;62005;50.082;8.988;2022-12-05T21:55:59;100811.56;;;5.31;88.95
73700;BME280;62005;50.082;8.988;2022-12-05T21:59:01;100809.06;;;5.29;88.97
73700;BME280;62005;50.082;8.988;2022-12-05T22:01:59;100774.03;;;5.08;88.53
73700;BME280;62005;50.082;8.988;2022-12-05T22:07:57;100801.56;;;5.25;89.48
73700;BME280;62005;50.082;8.988;2022-12-05T22:10:27;100776.91;;;5.07;88.93
73700;BME280;62005;50.082;8.988;2022-12-05T22:12:55;100747.81;;;4.96;89.47
73700;BME280;62005;50.082;8.988;2022-12-05T22:15:43;100749.03;;;4.93;89.44
73700;BME280;62005;50.082;8.988;2022-12-05T22:18:12;100743.66;;;4.93;89.43
73700;BME280;62005;50.082;8.988;2022-12-05T22:20:38;100807.06;;;5.31;89.74
73700;BME280;62005;50.082;8.988;2022-12-05T22:23:05;100773.19;;;5.08;90.13
73700;BME280;62005;50.082;8.988;2022-12-05T22:25:39;100805.53;;;5.29;89.48
73700;BME280;62005;50.082;8.988;2022-12-05T22:28:18;100759.03;;;4.99;89.37
73700;BME280;62005;50.082;8.988;2022-12-05T22:31:09;100757.00;;;5.01;89.04
73700;BME280;62005;50.082;8.988;2022-12-05T22:33:44;100792.03;;;5.22;89.99
73700;BME280;62005;50.082;8.988;2022-12-05T22:36:17;100785.56;;;5.17;89.95
73700;BME280;62005;50.082;8.988;2022-12-05T22:38:51;100773.19;;;5.08;89.82
73700;BME280;62005;50.082;8.988;2022-12-05T22:41:35;100814.06;;;5.32;89.81
73700;BME280;62005;50.082;8.988;2022-12-05T22:44:03;100768.69;;;5.08;89.28
73700;BME280;62005;50.082;8.988;2022-12-05T22:46:33;100798.72;;;5.26;89.88
73700;BME280;62005;50.082;8.988;2022-12-05T22:49:10;100778.00;;;5.20;89.90
73700;BME280;62005;50.082;8.988;2022-12-05T22:51:39;100773.31;;;5.14;89.78
73700;BME280;62005;50.082;8.988;2022-12-05T22:54:10;100763.31;;;5.08;90.09
73700;BME280;62005;50.082;8.988;2022-12-05T22:56:41;100767.66;;;5.09;89.59
73700;BME280;62005;50.082;8.988;2022-12-05T22:59:28;100805.34;;;5.30;90.00
73700;BME280;62005;50.082;8.988;2022-12-05T23:01:59;100764.97;;;5.09;89.27
73700;BME280;62005;50.082;8.988;2022-12-05T23:04:31;100731.63;;;4.89;90.07
73700;BME280;62005;50.082;8.988;2022-12-05T23:06:59;100764.97;;;5.09;89.39
73700;BME280;62005;50.082;8.988;2022-12-05T23:09:35;100752.00;;;4.98;90.10
73700;BME280;62005;50.082;8.988;2022-12-05T23:12:11;100730.28;;;4.93;90.11
73700;BME280;62005;50.082;8.988;2022-12-05T23:14:40;100739.28;;;5.00;89.58
73700;BME280;62005;50.082;8.988;2022-12-05T23:17:06;100774.28;;;5.21;90.30
73700;BME280;62005;50.082;8.988;2022-12-05T23:19:46;100711.41;;;4.87;90.08
73700;BME280;62005;50.082;8.988;2022-12-05T23:22:17;100750.22;;;5.13;90.17
73700;BME280;62005;50.082;8.988;2022-12-05T23:24:45;100788.94;;;5.33;90.03
73700;BME280;62005;50.082;8.988;2022-12-05T23:27:11;100747.25;;;5.08;90.07
73700;BME280;62005;50.082;8.988;2022-12-05T23:29:55;100745.25;;;5.10;90.07
73700;BME280;62005;50.082;8.988;2022-12-05T23:32:26;100743.53;;;5.09;90.28
73700;BME280;62005;50.082;8.988;2022-12-05T23:35:00;100740.56;;;5.04;89.97
73700;BME280;62005;50.082;8.988;2022-12-05T23:37:33;100757.25;;;5.14;90.55
73700;BME280;62005;50.082;8.988;2022-12-05T23:40:07;100753.69;;;5.22;90.51
73700;BME280;62005;50.082;8.988;2022-12-05T23:42:32;100782.19;;;5.38;90.19
73700;BME280;62005;50.082;8.988;2022-12-05T23:45:09;100750.22;;;5.13;90.45
73700;BME280;62005;50.082;8.988;2022-12-05T23:47:57;100786.56;;;5.39;90.73
73700;BME280;62005;50.082;8.988;2022-12-05T23:50:29;100715.34;;;4.99;90.41
73700;BME280;62005;50.082;8.988;2022-12-05T23:52:54;100775.72;;;5.32;90.35
73700;BME280;62005;50.082;8.988;2022-12-05T23:55:19;100776.06;;;5.29;90.98
73700;BME280;62005;50.082;8.988;2022-12-05T23:57:45;100793.94;;;5.37;90.75
